Accueil
METAR-TAF:

METAR-TAF

Aéroports :

Bamako, Mali

Aéroport international Modibo Keïta

latitude: 12-32N, longitude: 007-57W, altitude: 380 m

Observation

Le bulletin a été fait il y a 43 minutes, à 22:00 UTC
Vent 3 kt de direction variable
Température 31°C
Humidité 36%
Pression 1012 hPa
Visibilité 10 km ou plus
Quelques nuages à une hauteur de 3000 ft

METAR: GABS 242200Z VRB03KT 9999 FEW030 31/14 Q1012 NOSIG

Heure: 22:43 (22:43 UTC)

Prévision

Le bulletin a été fait il y a 5 heures et 13 minutes, à 17:30 UTC
Prévision valable du 24 à 18 UTC au 25 à 24 UTC
Vent 10 kt de sud-ouest
Visibilité 10 km ou plus
Quelques nuages à une hauteur de 3000 ft
Probabilité 40% :
Temporairement
du 25 à 15 UTC au 25 à 22 UTC
Nuages épars à une hauteur de 3000 ft
Quelques nuages à une hauteur de 4000 ft, Cumulonimbus.
orage, pluie

TAF: GABS 241730Z 2418/2524 22010KT 9999 FEW030 PROB40 TEMPO 2515/2522 TSRA SCT030 FEW040CB

Observations et prévisions météorologiques de plus de 4000 aéroports (messages METAR et TAF).

Les stations disponibles sont représentées par des disques jaunes et rouges sur la carte.

Passer la souris dessus pour voir le nom de la station.

Cliquer dessus pour voir les observations et prévisions météorologiques.

Pour changer de carte: cliquez sur les boutons verts avec une croix noire pour zoomer, sur le bouton vert avec un tiret pour effectuer un zoom arrière, ou sur les flèches vertes pour les cartes adjacentes.


METAR-TAF: